sensor_id;sensor_type;location;lat;lon;timestamp;P1;durP1;ratioP1;P2;durP2;ratioP2
27985;SDS011;15453;53.692;10.168;2023-04-24T00:00:00;8.23;;;3.28;;
27985;SDS011;15453;53.692;10.168;2023-04-24T00:02:25;3.40;;;2.67;;
27985;SDS011;15453;53.692;10.168;2023-04-24T00:04:51;3.63;;;2.80;;
27985;SDS011;15453;53.692;10.168;2023-04-24T00:07:16;2.90;;;2.60;;
27985;SDS011;15453;53.692;10.168;2023-04-24T00:09:42;3.15;;;2.85;;
27985;SDS011;15453;53.692;10.168;2023-04-24T00:12:08;3.75;;;2.75;;
27985;SDS011;15453;53.692;10.168;2023-04-24T00:14:34;5.25;;;2.80;;
27985;SDS011;15453;53.692;10.168;2023-04-24T00:17:00;4.70;;;3.40;;
27985;SDS011;15453;53.692;10.168;2023-04-24T00:19:25;4.35;;;3.55;;
27985;SDS011;15453;53.692;10.168;2023-04-24T00:21:50;4.20;;;3.40;;
27985;SDS011;15453;53.692;10.168;2023-04-24T00:24:16;3.85;;;3.38;;
27985;SDS011;15453;53.692;10.168;2023-04-24T00:26:43;5.00;;;3.30;;
27985;SDS011;15453;53.692;10.168;2023-04-24T00:29:09;3.85;;;3.35;;
27985;SDS011;15453;53.692;10.168;2023-04-24T00:31:34;4.55;;;3.40;;
27985;SDS011;15453;53.692;10.168;2023-04-24T00:34:00;5.10;;;3.42;;
27985;SDS011;15453;53.692;10.168;2023-04-24T00:36:26;6.20;;;3.40;;
27985;SDS011;15453;53.692;10.168;2023-04-24T00:38:52;4.05;;;3.45;;
27985;SDS011;15453;53.692;10.168;2023-04-24T00:41:18;4.32;;;3.50;;
27985;SDS011;15453;53.692;10.168;2023-04-24T00:43:43;5.38;;;3.47;;
27985;SDS011;15453;53.692;10.168;2023-04-24T00:46:09;6.15;;;3.45;;
27985;SDS011;15453;53.692;10.168;2023-04-24T00:48:36;4.65;;;4.03;;
27985;SDS011;15453;53.692;10.168;2023-04-24T00:51:03;8.82;;;4.28;;
27985;SDS011;15453;53.692;10.168;2023-04-24T00:53:28;5.10;;;3.65;;
27985;SDS011;15453;53.692;10.168;2023-04-24T00:55:54;6.15;;;3.67;;
27985;SDS011;15453;53.692;10.168;2023-04-24T00:58:20;4.32;;;3.53;;
27985;SDS011;15453;53.692;10.168;2023-04-24T01:00:45;4.10;;;3.40;;
27985;SDS011;15453;53.692;10.168;2023-04-24T01:03:11;4.18;;;3.70;;
27985;SDS011;15453;53.692;10.168;2023-04-24T01:05:38;6.55;;;4.25;;
27985;SDS011;15453;53.692;10.168;2023-04-24T01:08:03;4.30;;;3.60;;
27985;SDS011;15453;53.692;10.168;2023-04-24T01:10:29;4.35;;;3.92;;
27985;SDS011;15453;53.692;10.168;2023-04-24T01:12:55;4.85;;;4.05;;
27985;SDS011;15453;53.692;10.168;2023-04-24T01:15:21;5.13;;;3.90;;
27985;SDS011;15453;53.692;10.168;2023-04-24T01:17:46;5.95;;;3.92;;
27985;SDS011;15453;53.692;10.168;2023-04-24T01:20:12;5.05;;;4.28;;
27985;SDS011;15453;53.692;10.168;2023-04-24T01:22:38;5.43;;;3.85;;
27985;SDS011;15453;53.692;10.168;2023-04-24T01:25:03;4.70;;;4.20;;
27985;SDS011;15453;53.692;10.168;2023-04-24T01:27:30;5.88;;;4.00;;
27985;SDS011;15453;53.692;10.168;2023-04-24T01:29:55;4.50;;;3.70;;
27985;SDS011;15453;53.692;10.168;2023-04-24T01:32:20;4.05;;;3.47;;
27985;SDS011;15453;53.692;10.168;2023-04-24T01:34:46;4.78;;;3.80;;
27985;SDS011;15453;53.692;10.168;2023-04-24T01:37:11;4.53;;;3.47;;
27985;SDS011;15453;53.692;10.168;2023-04-24T01:39:37;5.78;;;3.50;;
27985;SDS011;15453;53.692;10.168;2023-04-24T01:42:02;3.70;;;3.25;;
27985;SDS011;15453;53.692;10.168;2023-04-24T01:44:27;4.22;;;3.83;;
27985;SDS011;15453;53.692;10.168;2023-04-24T01:46:53;4.00;;;3.42;;
27985;SDS011;15453;53.692;10.168;2023-04-24T01:49:20;3.35;;;3.05;;
27985;SDS011;15453;53.692;10.168;2023-04-24T01:51:45;4.53;;;3.47;;
27985;SDS011;15453;53.692;10.168;2023-04-24T01:54:11;3.72;;;3.15;;
27985;SDS011;15453;53.692;10.168;2023-04-24T01:56:36;5.10;;;3.25;;
27985;SDS011;15453;53.692;10.168;2023-04-24T01:59:06;3.92;;;3.08;;
27985;SDS011;15453;53.692;10.168;2023-04-24T02:01:35;3.63;;;3.28;;
27985;SDS011;15453;53.692;10.168;2023-04-24T02:04:01;3.25;;;2.95;;
27985;SDS011;15453;53.692;10.168;2023-04-24T02:06:27;4.75;;;3.03;;
27985;SDS011;15453;53.692;10.168;2023-04-24T02:08:52;5.03;;;2.88;;
27985;SDS011;15453;53.692;10.168;2023-04-24T02:11:17;3.30;;;2.90;;
27985;SDS011;15453;53.692;10.168;2023-04-24T02:13:43;5.00;;;2.80;;
27985;SDS011;15453;53.692;10.168;2023-04-24T02:16:08;3.88;;;2.72;;
27985;SDS011;15453;53.692;10.168;2023-04-24T02:18:34;3.83;;;2.47;;
27985;SDS011;15453;53.692;10.168;2023-04-24T02:20:59;3.35;;;2.30;;
27985;SDS011;15453;53.692;10.168;2023-04-24T02:23:24;3.75;;;2.20;;
27985;SDS011;15453;53.692;10.168;2023-04-24T02:25:50;3.40;;;2.33;;
27985;SDS011;15453;53.692;10.168;2023-04-24T02:28:15;2.95;;;2.25;;
27985;SDS011;15453;53.692;10.168;2023-04-24T02:30:40;2.58;;;1.98;;
27985;SDS011;15453;53.692;10.168;2023-04-24T02:33:06;4.80;;;2.05;;
27985;SDS011;15453;53.692;10.168;2023-04-24T02:35:32;2.42;;;1.83;;
27985;SDS011;15453;53.692;10.168;2023-04-24T02:37:57;2.30;;;1.90;;
27985;SDS011;15453;53.692;10.168;2023-04-24T02:40:22;3.03;;;2.05;;
27985;SDS011;15453;53.692;10.168;2023-04-24T02:42:47;3.30;;;2.05;;
27985;SDS011;15453;53.692;10.168;2023-04-24T02:45:13;2.20;;;1.90;;
27985;SDS011;15453;53.692;10.168;2023-04-24T02:47:38;2.58;;;2.00;;
27985;SDS011;15453;53.692;10.168;2023-04-24T02:50:03;2.28;;;2.03;;
27985;SDS011;15453;53.692;10.168;2023-04-24T02:52:29;2.45;;;1.92;;
27985;SDS011;15453;53.692;10.168;2023-04-24T02:54:54;2.50;;;2.05;;
27985;SDS011;15453;53.692;10.168;2023-04-24T02:57:20;3.45;;;2.20;;
27985;SDS011;15453;53.692;10.168;2023-04-24T02:59:45;2.42;;;2.20;;
27985;SDS011;15453;53.692;10.168;2023-04-24T03:02:10;2.38;;;1.98;;
27985;SDS011;15453;53.692;10.168;2023-04-24T03:04:36;4.85;;;2.20;;
27985;SDS011;15453;53.692;10.168;2023-04-24T03:07:01;2.35;;;2.10;;
27985;SDS011;15453;53.692;10.168;2023-04-24T03:09:26;2.83;;;2.13;;
27985;SDS011;15453;53.692;10.168;2023-04-24T03:11:52;3.10;;;1.98;;
27985;SDS011;15453;53.692;10.168;2023-04-24T03:14:17;2.25;;;1.80;;
27985;SDS011;15453;53.692;10.168;2023-04-24T03:16:42;2.15;;;1.95;;
27985;SDS011;15453;53.692;10.168;2023-04-24T03:19:07;2.30;;;1.90;;
27985;SDS011;15453;53.692;10.168;2023-04-24T03:21:33;2.17;;;1.80;;
27985;SDS011;15453;53.692;10.168;2023-04-24T03:23:58;2.65;;;2.00;;
27985;SDS011;15453;53.692;10.168;2023-04-24T03:26:24;3.00;;;2.00;;
27985;SDS011;15453;53.692;10.168;2023-04-24T03:28:49;2.40;;;2.00;;
27985;SDS011;15453;53.692;10.168;2023-04-24T03:31:15;2.55;;;1.85;;
27985;SDS011;15453;53.692;10.168;2023-04-24T03:33:41;2.28;;;1.83;;
27985;SDS011;15453;53.692;10.168;2023-04-24T03:36:06;1.90;;;1.70;;
27985;SDS011;15453;53.692;10.168;2023-04-24T03:38:32;1.67;;;1.50;;
27985;SDS011;15453;53.692;10.168;2023-04-24T03:40:57;4.25;;;1.98;;
27985;SDS011;15453;53.692;10.168;2023-04-24T03:43:22;1.67;;;1.45;;
27985;SDS011;15453;53.692;10.168;2023-04-24T03:45:48;2.45;;;1.80;;
27985;SDS011;15453;53.692;10.168;2023-04-24T03:48:13;2.20;;;1.38;;
27985;SDS011;15453;53.692;10.168;2023-04-24T03:50:38;1.80;;;1.42;;
27985;SDS011;15453;53.692;10.168;2023-04-24T03:53:03;2.30;;;1.40;;
27985;SDS011;15453;53.692;10.168;2023-04-24T03:55:29;1.80;;;1.33;;
27985;SDS011;15453;53.692;10.168;2023-04-24T03:57:54;2.28;;;1.30;;
27985;SDS011;15453;53.692;10.168;2023-04-24T04:00:20;2.65;;;1.30;;
27985;SDS011;15453;53.692;10.168;2023-04-24T04:02:46;1.40;;;1.10;;
27985;SDS011;15453;53.692;10.168;2023-04-24T04:05:11;1.80;;;1.40;;
27985;SDS011;15453;53.692;10.168;2023-04-24T04:07:36;1.30;;;1.20;;
27985;SDS011;15453;53.692;10.168;2023-04-24T04:10:01;2.72;;;1.20;;
27985;SDS011;15453;53.692;10.168;2023-04-24T04:12:27;1.58;;;1.27;;
27985;SDS011;15453;53.692;10.168;2023-04-24T04:14:52;2.40;;;1.27;;
27985;SDS011;15453;53.692;10.168;2023-04-24T04:17:18;1.15;;;1.00;;
27985;SDS011;15453;53.692;10.168;2023-04-24T04:19:43;1.73;;;1.20;;
27985;SDS011;15453;53.692;10.168;2023-04-24T04:22:08;2.38;;;0.98;;
27985;SDS011;15453;53.692;10.168;2023-04-24T04:24:34;1.70;;;1.30;;
27985;SDS011;15453;53.692;10.168;2023-04-24T04:27:02;2.33;;;1.27;;
27985;SDS011;15453;53.692;10.168;2023-04-24T04:29:29;1.75;;;1.30;;
27985;SDS011;15453;53.692;10.168;2023-04-24T04:31:56;2.65;;;1.48;;
27985;SDS011;15453;53.692;10.168;2023-04-24T04:34:22;1.67;;;1.30;;
27985;SDS011;15453;53.692;10.168;2023-04-24T04:36:47;2.05;;;1.10;;
27985;SDS011;15453;53.692;10.168;2023-04-24T04:39:13;1.85;;;1.00;;
27985;SDS011;15453;53.692;10.168;2023-04-24T04:41:40;3.40;;;1.30;;
27985;SDS011;15453;53.692;10.168;2023-04-24T04:44:05;2.08;;;1.10;;
27985;SDS011;15453;53.692;10.168;2023-04-24T04:46:31;4.22;;;1.15;;
27985;SDS011;15453;53.692;10.168;2023-04-24T04:49:02;1.63;;;1.05;;
27985;SDS011;15453;53.692;10.168;2023-04-24T04:51:27;1.20;;;1.10;;
27985;SDS011;15453;53.692;10.168;2023-04-24T04:53:53;1.50;;;1.10;;
27985;SDS011;15453;53.692;10.168;2023-04-24T04:56:18;1.20;;;0.90;;
27985;SDS011;15453;53.692;10.168;2023-04-24T04:58:43;1.65;;;1.20;;
27985;SDS011;15453;53.692;10.168;2023-04-24T05:01:09;1.48;;;1.30;;
27985;SDS011;15453;53.692;10.168;2023-04-24T05:03:34;2.17;;;1.05;;
27985;SDS011;15453;53.692;10.168;2023-04-24T05:06:00;3.47;;;1.38;;
27985;SDS011;15453;53.692;10.168;2023-04-24T05:08:26;1.77;;;1.10;;
27985;SDS011;15453;53.692;10.168;2023-04-24T05:10:51;1.58;;;1.20;;
27985;SDS011;15453;53.692;10.168;2023-04-24T05:13:16;1.33;;;0.73;;
27985;SDS011;15453;53.692;10.168;2023-04-24T05:15:41;2.15;;;1.27;;
27985;SDS011;15453;53.692;10.168;2023-04-24T05:18:07;1.30;;;1.10;;
27985;SDS011;15453;53.692;10.168;2023-04-24T05:20:32;1.90;;;1.10;;
27985;SDS011;15453;53.692;10.168;2023-04-24T05:22:57;3.75;;;1.42;;
27985;SDS011;15453;53.692;10.168;2023-04-24T05:25:23;1.35;;;0.90;;
27985;SDS011;15453;53.692;10.168;2023-04-24T05:27:48;1.25;;;1.00;;
27985;SDS011;15453;53.692;10.168;2023-04-24T05:30:13;2.38;;;0.98;;
27985;SDS011;15453;53.692;10.168;2023-04-24T05:32:39;2.65;;;1.20;;
27985;SDS011;15453;53.692;10.168;2023-04-24T05:35:04;1.83;;;1.02;;
27985;SDS011;15453;53.692;10.168;2023-04-24T05:37:30;1.70;;;1.00;;
27985;SDS011;15453;53.692;10.168;2023-04-24T05:39:55;1.20;;;0.80;;
27985;SDS011;15453;53.692;10.168;2023-04-24T05:42:20;1.20;;;0.90;;
27985;SDS011;15453;53.692;10.168;2023-04-24T05:44:45;1.17;;;0.80;;
27985;SDS011;15453;53.692;10.168;2023-04-24T05:47:11;2.08;;;1.10;;
27985;SDS011;15453;53.692;10.168;2023-04-24T05:49:36;2.20;;;1.05;;
27985;SDS011;15453;53.692;10.168;2023-04-24T05:52:01;2.38;;;0.80;;
27985;SDS011;15453;53.692;10.168;2023-04-24T05:54:29;1.00;;;0.73;;
27985;SDS011;15453;53.692;10.168;2023-04-24T05:56:54;1.23;;;0.70;;
27985;SDS011;15453;53.692;10.168;2023-04-24T05:59:20;1.35;;;0.73;;
27985;SDS011;15453;53.692;10.168;2023-04-24T06:01:46;1.40;;;0.90;;
27985;SDS011;15453;53.692;10.168;2023-04-24T06:04:11;1.00;;;0.73;;
27985;SDS011;15453;53.692;10.168;2023-04-24T06:06:38;1.23;;;0.80;;
27985;SDS011;15453;53.692;10.168;2023-04-24T06:09:04;1.27;;;0.80;;
27985;SDS011;15453;53.692;10.168;2023-04-24T06:11:29;1.83;;;1.00;;
27985;SDS011;15453;53.692;10.168;2023-04-24T06:13:55;2.65;;;1.50;;
27985;SDS011;15453;53.692;10.168;2023-04-24T06:16:20;2.70;;;1.75;;
27985;SDS011;15453;53.692;10.168;2023-04-24T06:18:45;2.38;;;1.20;;
27985;SDS011;15453;53.692;10.168;2023-04-24T06:21:12;1.38;;;0.90;;
27985;SDS011;15453;53.692;10.168;2023-04-24T06:23:37;2.22;;;1.10;;
27985;SDS011;15453;53.692;10.168;2023-04-24T06:26:03;1.55;;;1.20;;
27985;SDS011;15453;53.692;10.168;2023-04-24T06:28:28;2.13;;;1.13;;
27985;SDS011;15453;53.692;10.168;2023-04-24T06:30:53;2.97;;;1.35;;
27985;SDS011;15453;53.692;10.168;2023-04-24T06:33:18;4.30;;;2.22;;
27985;SDS011;15453;53.692;10.168;2023-04-24T06:35:44;1.92;;;1.40;;
27985;SDS011;15453;53.692;10.168;2023-04-24T06:38:09;3.38;;;1.40;;
27985;SDS011;15453;53.692;10.168;2023-04-24T06:40:34;1.70;;;1.30;;
27985;SDS011;15453;53.692;10.168;2023-04-24T06:42:59;3.42;;;1.55;;
27985;SDS011;15453;53.692;10.168;2023-04-24T06:45:27;3.22;;;2.17;;
27985;SDS011;15453;53.692;10.168;2023-04-24T06:47:52;3.40;;;1.50;;
27985;SDS011;15453;53.692;10.168;2023-04-24T06:50:18;2.13;;;1.60;;
27985;SDS011;15453;53.692;10.168;2023-04-24T06:52:43;2.60;;;1.20;;
27985;SDS011;15453;53.692;10.168;2023-04-24T06:55:09;1.75;;;1.20;;
27985;SDS011;15453;53.692;10.168;2023-04-24T06:57:35;1.98;;;1.23;;
27985;SDS011;15453;53.692;10.168;2023-04-24T07:00:01;2.42;;;1.25;;
27985;SDS011;15453;53.692;10.168;2023-04-24T07:02:28;1.67;;;1.38;;
27985;SDS011;15453;53.692;10.168;2023-04-24T07:04:53;1.70;;;1.30;;
27985;SDS011;15453;53.692;10.168;2023-04-24T07:07:18;2.45;;;1.60;;
27985;SDS011;15453;53.692;10.168;2023-04-24T07:09:44;2.33;;;1.70;;
27985;SDS011;15453;53.692;10.168;2023-04-24T07:12:10;4.15;;;2.05;;
27985;SDS011;15453;53.692;10.168;2023-04-24T07:14:36;1.90;;;1.20;;
27985;SDS011;15453;53.692;10.168;2023-04-24T07:17:03;2.78;;;1.90;;
27985;SDS011;15453;53.692;10.168;2023-04-24T07:19:29;8.20;;;4.35;;
27985;SDS011;15453;53.692;10.168;2023-04-24T07:21:54;5.78;;;2.30;;
27985;SDS011;15453;53.692;10.168;2023-04-24T07:24:20;2.08;;;1.63;;
27985;SDS011;15453;53.692;10.168;2023-04-24T07:26:45;6.95;;;2.67;;
27985;SDS011;15453;53.692;10.168;2023-04-24T07:29:11;2.35;;;1.50;;
27985;SDS011;15453;53.692;10.168;2023-04-24T07:31:38;2.08;;;1.40;;
27985;SDS011;15453;53.692;10.168;2023-04-24T07:34:03;2.72;;;1.80;;
27985;SDS011;15453;53.692;10.168;2023-04-24T07:36:29;2.42;;;1.90;;
27985;SDS011;15453;53.692;10.168;2023-04-24T07:38:54;2.22;;;1.58;;
27985;SDS011;15453;53.692;10.168;2023-04-24T07:41:20;1.75;;;1.30;;
27985;SDS011;15453;53.692;10.168;2023-04-24T07:43:46;1.55;;;1.30;;
27985;SDS011;15453;53.692;10.168;2023-04-24T07:46:11;2.40;;;1.88;;
27985;SDS011;15453;53.692;10.168;2023-04-24T07:48:36;1.85;;;1.63;;
27985;SDS011;15453;53.692;10.168;2023-04-24T07:51:02;1.70;;;1.40;;
27985;SDS011;15453;53.692;10.168;2023-04-24T07:53:27;2.05;;;1.58;;
27985;SDS011;15453;53.692;10.168;2023-04-24T07:55:53;1.55;;;1.45;;
27985;SDS011;15453;53.692;10.168;2023-04-24T07:58:19;2.85;;;1.55;;
27985;SDS011;15453;53.692;10.168;2023-04-24T08:00:45;2.20;;;1.52;;
27985;SDS011;15453;53.692;10.168;2023-04-24T08:03:10;2.47;;;1.95;;
27985;SDS011;15453;53.692;10.168;2023-04-24T08:05:37;2.70;;;1.50;;
27985;SDS011;15453;53.692;10.168;2023-04-24T08:08:02;3.90;;;1.45;;
27985;SDS011;15453;53.692;10.168;2023-04-24T08:10:28;3.30;;;1.40;;
27985;SDS011;15453;53.692;10.168;2023-04-24T08:12:53;1.70;;;1.42;;
27985;SDS011;15453;53.692;10.168;2023-04-24T08:15:19;2.25;;;1.83;;
27985;SDS011;15453;53.692;10.168;2023-04-24T08:17:45;3.03;;;2.10;;
27985;SDS011;15453;53.692;10.168;2023-04-24T08:20:10;4.13;;;2.35;;
27985;SDS011;15453;53.692;10.168;2023-04-24T08:22:41;2.53;;;1.88;;
27985;SDS011;15453;53.692;10.168;2023-04-24T08:25:08;3.97;;;1.73;;
27985;SDS011;15453;53.692;10.168;2023-04-24T08:27:34;3.83;;;2.10;;
27985;SDS011;15453;53.692;10.168;2023-04-24T08:29:59;2.55;;;1.88;;
27985;SDS011;15453;53.692;10.168;2023-04-24T08:32:25;2.55;;;1.95;;
27985;SDS011;15453;53.692;10.168;2023-04-24T08:34:53;2.13;;;1.92;;
27985;SDS011;15453;53.692;10.168;2023-04-24T08:37:21;3.17;;;2.13;;
27985;SDS011;15453;53.692;10.168;2023-04-24T08:39:46;4.05;;;2.17;;
27985;SDS011;15453;53.692;10.168;2023-04-24T08:42:11;2.70;;;2.20;;
27985;SDS011;15453;53.692;10.168;2023-04-24T08:44:38;2.35;;;2.15;;
27985;SDS011;15453;53.692;10.168;2023-04-24T08:47:03;2.83;;;2.22;;
27985;SDS011;15453;53.692;10.168;2023-04-24T08:49:30;2.35;;;2.15;;
27985;SDS011;15453;53.692;10.168;2023-04-24T08:51:56;3.58;;;2.55;;
27985;SDS011;15453;53.692;10.168;2023-04-24T08:54:21;4.80;;;3.30;;
27985;SDS011;15453;53.692;10.168;2023-04-24T08:56:47;3.72;;;2.58;;
27985;SDS011;15453;53.692;10.168;2023-04-24T08:59:13;2.80;;;2.33;;
27985;SDS011;15453;53.692;10.168;2023-04-24T09:01:40;1.70;;;1.60;;
27985;SDS011;15453;53.692;10.168;2023-04-24T09:04:05;2.95;;;2.00;;
27985;SDS011;15453;53.692;10.168;2023-04-24T09:06:32;2.72;;;2.00;;
27985;SDS011;15453;53.692;10.168;2023-04-24T09:08:59;4.13;;;2.55;;
27985;SDS011;15453;53.692;10.168;2023-04-24T09:11:26;4.03;;;2.30;;
27985;SDS011;15453;53.692;10.168;2023-04-24T09:13:52;3.28;;;2.53;;
27985;SDS011;15453;53.692;10.168;2023-04-24T09:16:19;4.10;;;2.80;;
27985;SDS011;15453;53.692;10.168;2023-04-24T09:18:44;2.70;;;2.13;;
27985;SDS011;15453;53.692;10.168;2023-04-24T09:21:09;3.47;;;2.75;;
27985;SDS011;15453;53.692;10.168;2023-04-24T09:23:35;3.30;;;2.47;;
27985;SDS011;15453;53.692;10.168;2023-04-24T09:26:01;3.15;;;2.63;;
27985;SDS011;15453;53.692;10.168;2023-04-24T09:28:30;3.90;;;2.90;;
27985;SDS011;15453;53.692;10.168;2023-04-24T09:31:07;5.28;;;3.47;;
27985;SDS011;15453;53.692;10.168;2023-04-24T09:33:53;4.05;;;2.75;;
27985;SDS011;15453;53.692;10.168;2023-04-24T09:36:18;3.90;;;2.58;;
27985;SDS011;15453;53.692;10.168;2023-04-24T09:38:43;10.52;;;6.25;;
27985;SDS011;15453;53.692;10.168;2023-04-24T09:41:10;4.70;;;3.47;;
27985;SDS011;15453;53.692;10.168;2023-04-24T09:43:38;4.15;;;2.97;;
27985;SDS011;15453;53.692;10.168;2023-04-24T09:46:05;3.33;;;2.50;;
27985;SDS011;15453;53.692;10.168;2023-04-24T09:48:35;2.60;;;2.40;;
27985;SDS011;15453;53.692;10.168;2023-04-24T09:51:02;3.15;;;2.55;;
27985;SDS011;15453;53.692;10.168;2023-04-24T09:53:29;3.83;;;2.95;;
27985;SDS011;15453;53.692;10.168;2023-04-24T09:55:55;4.72;;;2.20;;
27985;SDS011;15453;53.692;10.168;2023-04-24T09:58:25;4.53;;;2.60;;
27985;SDS011;15453;53.692;10.168;2023-04-24T10:00:53;2.88;;;2.40;;
27985;SDS011;15453;53.692;10.168;2023-04-24T10:03:19;3.25;;;2.58;;
27985;SDS011;15453;53.692;10.168;2023-04-24T10:05:45;3.65;;;2.92;;
27985;SDS011;15453;53.692;10.168;2023-04-24T10:08:11;3.40;;;3.10;;
27985;SDS011;15453;53.692;10.168;2023-04-24T10:10:39;4.40;;;2.85;;
27985;SDS011;15453;53.692;10.168;2023-04-24T10:13:07;3.83;;;2.72;;
27985;SDS011;15453;53.692;10.168;2023-04-24T10:15:34;2.50;;;2.30;;
27985;SDS011;15453;53.692;10.168;2023-04-24T10:18:00;3.40;;;2.90;;
27985;SDS011;15453;53.692;10.168;2023-04-24T10:20:26;3.60;;;2.95;;
27985;SDS011;15453;53.692;10.168;2023-04-24T10:22:54;3.40;;;2.70;;
27985;SDS011;15453;53.692;10.168;2023-04-24T10:25:20;3.65;;;3.13;;
27985;SDS011;15453;53.692;10.168;2023-04-24T10:27:49;3.70;;;3.13;;
27985;SDS011;15453;53.692;10.168;2023-04-24T10:30:15;5.47;;;3.40;;
27985;SDS011;15453;53.692;10.168;2023-04-24T10:32:41;3.63;;;3.28;;
27985;SDS011;15453;53.692;10.168;2023-04-24T10:35:06;4.72;;;2.80;;
27985;SDS011;15453;53.692;10.168;2023-04-24T10:37:37;4.80;;;3.38;;
27985;SDS011;15453;53.692;10.168;2023-04-24T10:40:05;5.32;;;3.25;;
27985;SDS011;15453;53.692;10.168;2023-04-24T10:42:32;5.97;;;3.30;;
27985;SDS011;15453;53.692;10.168;2023-04-24T10:44:58;5.13;;;3.63;;
27985;SDS011;15453;53.692;10.168;2023-04-24T10:47:23;4.43;;;3.70;;
27985;SDS011;15453;53.692;10.168;2023-04-24T10:49:50;6.50;;;3.88;;
27985;SDS011;15453;53.692;10.168;2023-04-24T10:52:16;7.78;;;4.88;;
27985;SDS011;15453;53.692;10.168;2023-04-24T10:54:45;15.75;;;10.40;;
27985;SDS011;15453;53.692;10.168;2023-04-24T10:59:44;7.80;;;5.85;;
27985;SDS011;15453;53.692;10.168;2023-04-24T11:02:10;8.10;;;5.28;;
27985;SDS011;15453;53.692;10.168;2023-04-24T11:04:35;7.07;;;5.50;;
27985;SDS011;15453;53.692;10.168;2023-04-24T11:07:02;5.85;;;4.75;;
27985;SDS011;15453;53.692;10.168;2023-04-24T11:09:28;7.57;;;6.05;;
27985;SDS011;15453;53.692;10.168;2023-04-24T11:12:03;7.43;;;4.93;;
27985;SDS011;15453;53.692;10.168;2023-04-24T11:14:35;7.25;;;5.15;;
27985;SDS011;15453;53.692;10.168;2023-04-24T11:17:29;8.07;;;5.40;;
27985;SDS011;15453;53.692;10.168;2023-04-24T11:22:34;8.77;;;5.70;;
27985;SDS011;15453;53.692;10.168;2023-04-24T11:25:02;9.90;;;6.53;;
27985;SDS011;15453;53.692;10.168;2023-04-24T11:27:31;9.48;;;6.80;;
27985;SDS011;15453;53.692;10.168;2023-04-24T11:30:07;7.93;;;5.97;;
27985;SDS011;15453;53.692;10.168;2023-04-24T11:34:59;8.80;;;6.30;;
27985;SDS011;15453;53.692;10.168;2023-04-24T11:37:27;9.45;;;6.97;;
27985;SDS011;15453;53.692;10.168;2023-04-24T11:39:54;10.13;;;7.03;;
27985;SDS011;15453;53.692;10.168;2023-04-24T11:42:23;7.28;;;5.88;;
27985;SDS011;15453;53.692;10.168;2023-04-24T11:44:51;6.22;;;5.60;;
27985;SDS011;15453;53.692;10.168;2023-04-24T11:47:17;7.80;;;5.93;;
27985;SDS011;15453;53.692;10.168;2023-04-24T11:49:43;11.63;;;6.35;;
27985;SDS011;15453;53.692;10.168;2023-04-24T11:52:08;9.25;;;6.53;;
27985;SDS011;15453;53.692;10.168;2023-04-24T11:54:33;7.47;;;5.57;;
27985;SDS011;15453;53.692;10.168;2023-04-24T11:56:59;10.40;;;6.28;;
27985;SDS011;15453;53.692;10.168;2023-04-24T11:59:24;10.02;;;7.10;;
27985;SDS011;15453;53.692;10.168;2023-04-24T12:01:50;11.25;;;6.75;;
27985;SDS011;15453;53.692;10.168;2023-04-24T12:04:16;6.68;;;5.72;;
27985;SDS011;15453;53.692;10.168;2023-04-24T12:10:19;9.25;;;6.68;;
27985;SDS011;15453;53.692;10.168;2023-04-24T12:12:26;7.50;;;5.70;;
27985;SDS011;15453;53.692;10.168;2023-04-24T12:14:53;11.52;;;7.78;;
27985;SDS011;15453;53.692;10.168;2023-04-24T12:17:29;9.40;;;7.10;;
27985;SDS011;15453;53.692;10.168;2023-04-24T12:19:59;8.20;;;5.95;;
27985;SDS011;15453;53.692;10.168;2023-04-24T12:22:27;6.05;;;4.75;;
27985;SDS011;15453;53.692;10.168;2023-04-24T12:25:02;6.35;;;5.00;;
27985;SDS011;15453;53.692;10.168;2023-04-24T12:27:31;6.68;;;5.22;;
27985;SDS011;15453;53.692;10.168;2023-04-24T12:29:58;6.80;;;5.03;;
27985;SDS011;15453;53.692;10.168;2023-04-24T12:32:24;7.70;;;4.35;;
27985;SDS011;15453;53.692;10.168;2023-04-24T12:34:50;5.55;;;4.57;;
27985;SDS011;15453;53.692;10.168;2023-04-24T12:37:17;5.95;;;4.43;;
27985;SDS011;15453;53.692;10.168;2023-04-24T12:42:47;6.40;;;4.25;;
27985;SDS011;15453;53.692;10.168;2023-04-24T12:45:14;6.95;;;4.55;;
27985;SDS011;15453;53.692;10.168;2023-04-24T12:47:41;5.72;;;4.30;;
27985;SDS011;15453;53.692;10.168;2023-04-24T12:50:08;10.65;;;4.35;;
27985;SDS011;15453;53.692;10.168;2023-04-24T12:52:34;6.20;;;4.55;;
27985;SDS011;15453;53.692;10.168;2023-04-24T12:55:00;6.38;;;4.28;;
27985;SDS011;15453;53.692;10.168;2023-04-24T12:57:26;8.05;;;5.00;;
27985;SDS011;15453;53.692;10.168;2023-04-24T12:59:53;6.50;;;4.80;;
27985;SDS011;15453;53.692;10.168;2023-04-24T13:02:20;5.32;;;3.95;;
27985;SDS011;15453;53.692;10.168;2023-04-24T13:04:48;5.05;;;4.30;;
27985;SDS011;15453;53.692;10.168;2023-04-24T13:07:14;6.53;;;4.38;;
27985;SDS011;15453;53.692;10.168;2023-04-24T13:09:40;4.07;;;3.47;;
27985;SDS011;15453;53.692;10.168;2023-04-24T13:12:07;3.95;;;3.25;;
27985;SDS011;15453;53.692;10.168;2023-04-24T13:14:32;6.20;;;4.30;;
27985;SDS011;15453;53.692;10.168;2023-04-24T13:16:58;7.65;;;4.95;;
27985;SDS011;15453;53.692;10.168;2023-04-24T13:19:27;6.97;;;5.18;;
27985;SDS011;15453;53.692;10.168;2023-04-24T13:21:53;7.03;;;4.70;;
27985;SDS011;15453;53.692;10.168;2023-04-24T13:24:20;7.32;;;4.00;;
27985;SDS011;15453;53.692;10.168;2023-04-24T13:26:45;6.35;;;5.43;;
27985;SDS011;15453;53.692;10.168;2023-04-24T13:29:11;5.88;;;4.93;;
27985;SDS011;15453;53.692;10.168;2023-04-24T13:31:36;5.28;;;4.47;;
27985;SDS011;15453;53.692;10.168;2023-04-24T13:34:02;4.90;;;3.95;;
27985;SDS011;15453;53.692;10.168;2023-04-24T13:36:28;5.60;;;4.38;;
27985;SDS011;15453;53.692;10.168;2023-04-24T13:38:55;5.60;;;4.72;;
27985;SDS011;15453;53.692;10.168;2023-04-24T13:41:20;6.13;;;4.53;;
27985;SDS011;15453;53.692;10.168;2023-04-24T13:43:45;5.20;;;4.20;;
27985;SDS011;15453;53.692;10.168;2023-04-24T13:46:10;6.68;;;4.15;;
27985;SDS011;15453;53.692;10.168;2023-04-24T13:48:36;5.07;;;4.25;;
27985;SDS011;15453;53.692;10.168;2023-04-24T13:51:01;5.22;;;4.03;;
27985;SDS011;15453;53.692;10.168;2023-04-24T13:53:26;5.47;;;4.07;;
27985;SDS011;15453;53.692;10.168;2023-04-24T13:55:52;4.32;;;3.85;;
27985;SDS011;15453;53.692;10.168;2023-04-24T13:58:17;4.60;;;3.80;;
27985;SDS011;15453;53.692;10.168;2023-04-24T14:00:42;4.70;;;4.03;;
27985;SDS011;15453;53.692;10.168;2023-04-24T14:03:08;4.63;;;3.75;;
27985;SDS011;15453;53.692;10.168;2023-04-24T14:05:33;4.32;;;3.92;;
27985;SDS011;15453;53.692;10.168;2023-04-24T14:07:58;5.40;;;4.28;;
27985;SDS011;15453;53.692;10.168;2023-04-24T14:10:23;4.47;;;3.85;;
27985;SDS011;15453;53.692;10.168;2023-04-24T14:12:49;5.93;;;4.15;;
27985;SDS011;15453;53.692;10.168;2023-04-24T14:15:15;5.00;;;3.45;;
27985;SDS011;15453;53.692;10.168;2023-04-24T14:17:41;7.07;;;4.10;;
27985;SDS011;15453;53.692;10.168;2023-04-24T14:20:07;3.70;;;3.30;;
27985;SDS011;15453;53.692;10.168;2023-04-24T14:22:33;4.18;;;2.95;;
27985;SDS011;15453;53.692;10.168;2023-04-24T14:24:59;4.53;;;3.20;;
27985;SDS011;15453;53.692;10.168;2023-04-24T14:27:24;3.55;;;3.05;;
27985;SDS011;15453;53.692;10.168;2023-04-24T14:29:50;3.53;;;3.10;;
27985;SDS011;15453;53.692;10.168;2023-04-24T14:32:16;3.40;;;3.10;;
27985;SDS011;15453;53.692;10.168;2023-04-24T14:34:41;3.97;;;2.92;;
27985;SDS011;15453;53.692;10.168;2023-04-24T14:37:07;3.03;;;2.72;;
27985;SDS011;15453;53.692;10.168;2023-04-24T14:39:32;3.78;;;2.65;;